TimeEDT,TemperatureF,Dew PointF,Humidity,Sea Level PressureIn,VisibilityMPH,Wind Direction,Wind SpeedMPH,Gust SpeedMPH,PrecipitationIn,Events,Conditions,WindDirDegrees,DateUTC
12:06 AM,69.8,66.2,88,29.88,10.0,Calm,Calm,-,0.00,,Mostly Cloudy,0,2013-07-23 04:06:00
12:39 AM,69.8,66.2,88,29.87,10.0,Calm,Calm,-,0.00,,Mostly Cloudy,0,2013-07-23 04:39:00
12:54 AM,70.0,66.0,87,29.86,10.0,South,3.5,-,0.00,,Overcast,190,2013-07-23 04:54:00
1:54 AM,69.1,66.9,93,29.84,6.0,Calm,Calm,-,0.01,Rain,Light Rain,0,2013-07-23 05:54:00
2:54 AM,68.0,66.0,93,29.83,5.0,SSW,3.5,-,0.02,Rain,Light Rain,200,2013-07-23 06:54:00
3:54 AM,68.0,66.0,93,29.80,6.0,SSE,3.5,-,0.01,Rain,Light Rain,160,2013-07-23 07:54:00
4:54 AM,66.9,64.9,93,29.78,4.0,Calm,Calm,-,0.04,Rain,Light Rain,0,2013-07-23 08:54:00
5:54 AM,66.0,64.9,96,29.78,2.5,Calm,Calm,-,0.05,Rain,Light Rain,0,2013-07-23 09:54:00
6:03 AM,66.2,64.4,94,29.78,3.0,ESE,3.5,-,0.01,Rain,Light Rain,120,2013-07-23 10:03:00
6:54 AM,66.9,64.9,93,29.77,3.0,Calm,Calm,-,0.06,Rain,Light Rain,0,2013-07-23 10:54:00
7:19 AM,66.2,64.4,94,29.77,4.0,Calm,Calm,-,0.01,Rain,Light Rain,0,2013-07-23 11:19:00
7:42 AM,66.2,64.4,94,29.76,6.0,Calm,Calm,-,0.02,Rain,Light Rain,0,2013-07-23 11:42:00
7:54 AM,66.9,64.9,93,29.75,6.0,Calm,Calm,-,0.03,Rain,Light Rain,0,2013-07-23 11:54:00
8:10 AM,66.2,64.4,94,29.75,5.0,Calm,Calm,-,0.00,Rain,Light Rain,0,2013-07-23 12:10:00
8:38 AM,66.2,64.4,94,29.74,5.0,NNW,3.5,-,0.01,Rain,Light Rain,330,2013-07-23 12:38:00
8:54 AM,66.9,66.0,97,29.73,6.0,North,3.5,-,0.02,Rain,Light Rain,10,2013-07-23 12:54:00
9:20 AM,68.0,66.2,94,29.73,8.0,Calm,Calm,-,0.00,,Overcast,0,2013-07-23 13:20:00
9:44 AM,69.8,66.2,88,29.71,10.0,Calm,Calm,-,0.00,,Overcast,0,2013-07-23 13:44:00
9:54 AM,69.1,66.0,90,29.70,10.0,NNW,3.5,-,0.00,,Overcast,340,2013-07-23 13:54:00
10:24 AM,69.8,64.4,83,29.70,10.0,North,4.6,-,N/A,,Overcast,10,2013-07-23 14:24:00
10:51 AM,69.8,66.2,88,29.69,7.0,North,3.5,-,0.00,Rain,Light Rain,350,2013-07-23 14:51:00
10:54 AM,69.1,66.0,90,29.68,7.0,North,3.5,-,0.00,Rain,Light Rain,10,2013-07-23 14:54:00
11:54 AM,69.1,66.0,90,29.67,7.0,North,4.6,-,0.02,Rain,Light Rain,10,2013-07-23 15:54:00
12:44 PM,69.8,66.2,88,29.67,10.0,North,3.5,-,0.04,Rain,Light Rain,10,2013-07-23 16:44:00
12:54 PM,71.1,66.0,84,29.66,10.0,Calm,Calm,-,0.04,,Overcast,0,2013-07-23 16:54:00
1:54 PM,73.9,66.9,79,29.63,10.0,Variable,3.5,-,N/A,,Overcast,0,2013-07-23 17:54:00
2:19 PM,73.4,64.4,73,29.63,10.0,Variable,3.5,-,N/A,,Overcast,0,2013-07-23 18:19:00
2:35 PM,73.4,64.4,73,29.63,10.0,NNW,4.6,-,N/A,,Overcast,330,2013-07-23 18:35:00
2:45 PM,73.4,66.2,78,29.63,10.0,NNW,4.6,-,N/A,,Overcast,340,2013-07-23 18:45:00
2:54 PM,73.0,66.0,79,29.62,10.0,Calm,Calm,-,N/A,,Overcast,0,2013-07-23 18:54:00
3:54 PM,72.0,66.0,81,29.62,10.0,SSW,5.8,-,N/A,,Overcast,200,2013-07-23 19:54:00
4:54 PM,73.9,66.9,79,29.60,10.0,Calm,Calm,-,N/A,,Scattered Clouds,0,2013-07-23 20:54:00
5:54 PM,75.0,64.9,71,29.59,10.0,SSW,3.5,-,N/A,,Clear,200,2013-07-23 21:54:00
6:54 PM,75.0,64.9,71,29.58,10.0,Calm,Calm,-,N/A,,Clear,0,2013-07-23 22:54:00
7:54 PM,71.1,66.9,87,29.57,10.0,Calm,Calm,-,N/A,,Clear,0,2013-07-23 23:54:00
8:54 PM,68.0,66.0,93,29.60,10.0,Calm,Calm,-,N/A,,Clear,0,2013-07-24 00:54:00
9:54 PM,66.9,66.0,97,29.60,10.0,Calm,Calm,-,N/A,,Scattered Clouds,0,2013-07-24 01:54:00
10:54 PM,66.0,64.0,93,29.60,10.0,Calm,Calm,-,N/A,,Clear,0,2013-07-24 02:54:00
11:54 PM,64.0,63.0,96,29.60,10.0,Calm,Calm,-,N/A,,Partly Cloudy,0,2013-07-24 03:54:00